sensor_id;sensor_type;location;lat;lon;timestamp;P1;durP1;ratioP1;P2;durP2;ratioP2
21472;SDS011;10898;48.072;11.682;2024-02-14T00:00:41;2.83;;;2.45;;
21472;SDS011;10898;48.072;11.682;2024-02-14T00:02:45;2.88;;;2.58;;
21472;SDS011;10898;48.072;11.682;2024-02-14T00:04:50;2.05;;;1.88;;
21472;SDS011;10898;48.072;11.682;2024-02-14T00:06:54;3.38;;;2.20;;
21472;SDS011;10898;48.072;11.682;2024-02-14T00:08:56;3.22;;;2.83;;
21472;SDS011;10898;48.072;11.682;2024-02-14T00:10:58;3.40;;;2.50;;
21472;SDS011;10898;48.072;11.682;2024-02-14T00:13:00;4.45;;;2.50;;
21472;SDS011;10898;48.072;11.682;2024-02-14T00:15:02;4.43;;;2.25;;
21472;SDS011;10898;48.072;11.682;2024-02-14T00:17:05;3.08;;;2.53;;
21472;SDS011;10898;48.072;11.682;2024-02-14T00:19:08;3.67;;;2.22;;
21472;SDS011;10898;48.072;11.682;2024-02-14T00:21:10;2.20;;;2.10;;
21472;SDS011;10898;48.072;11.682;2024-02-14T00:23:12;2.30;;;2.10;;
21472;SDS011;10898;48.072;11.682;2024-02-14T00:25:14;2.10;;;2.00;;
21472;SDS011;10898;48.072;11.682;2024-02-14T00:27:20;2.20;;;2.00;;
21472;SDS011;10898;48.072;11.682;2024-02-14T00:29:22;2.35;;;2.15;;
21472;SDS011;10898;48.072;11.682;2024-02-14T00:31:25;3.20;;;2.35;;
21472;SDS011;10898;48.072;11.682;2024-02-14T00:33:27;2.20;;;2.00;;
21472;SDS011;10898;48.072;11.682;2024-02-14T00:35:31;2.50;;;2.15;;
21472;SDS011;10898;48.072;11.682;2024-02-14T00:37:33;2.65;;;2.20;;
21472;SDS011;10898;48.072;11.682;2024-02-14T00:39:35;3.35;;;2.20;;
21472;SDS011;10898;48.072;11.682;2024-02-14T00:41:37;2.70;;;2.05;;
21472;SDS011;10898;48.072;11.682;2024-02-14T00:43:38;2.28;;;2.08;;
21472;SDS011;10898;48.072;11.682;2024-02-14T00:45:40;4.60;;;1.95;;
21472;SDS011;10898;48.072;11.682;2024-02-14T00:47:42;2.70;;;2.20;;
21472;SDS011;10898;48.072;11.682;2024-02-14T00:49:44;3.15;;;2.85;;
21472;SDS011;10898;48.072;11.682;2024-02-14T00:51:46;2.63;;;2.38;;
21472;SDS011;10898;48.072;11.682;2024-02-14T00:53:48;3.60;;;2.60;;
21472;SDS011;10898;48.072;11.682;2024-02-14T00:55:50;3.78;;;2.28;;
21472;SDS011;10898;48.072;11.682;2024-02-14T00:57:51;2.65;;;1.70;;
21472;SDS011;10898;48.072;11.682;2024-02-14T00:59:54;2.47;;;2.28;;
21472;SDS011;10898;48.072;11.682;2024-02-14T01:01:59;3.00;;;2.60;;
21472;SDS011;10898;48.072;11.682;2024-02-14T01:04:01;4.03;;;2.47;;
21472;SDS011;10898;48.072;11.682;2024-02-14T01:06:04;2.50;;;2.10;;
21472;SDS011;10898;48.072;11.682;2024-02-14T01:08:06;4.25;;;2.70;;
21472;SDS011;10898;48.072;11.682;2024-02-14T01:10:08;3.10;;;2.28;;
21472;SDS011;10898;48.072;11.682;2024-02-14T01:14:12;2.42;;;2.22;;
21472;SDS011;10898;48.072;11.682;2024-02-14T01:16:15;2.47;;;2.20;;
21472;SDS011;10898;48.072;11.682;2024-02-14T01:18:17;3.25;;;2.05;;
21472;SDS011;10898;48.072;11.682;2024-02-14T01:20:19;4.60;;;2.35;;
21472;SDS011;10898;48.072;11.682;2024-02-14T01:22:21;3.20;;;1.95;;
21472;SDS011;10898;48.072;11.682;2024-02-14T01:24:23;2.00;;;1.88;;
21472;SDS011;10898;48.072;11.682;2024-02-14T01:26:28;2.00;;;1.90;;
21472;SDS011;10898;48.072;11.682;2024-02-14T01:28:29;3.35;;;2.35;;
21472;SDS011;10898;48.072;11.682;2024-02-14T01:30:31;2.72;;;2.33;;
21472;SDS011;10898;48.072;11.682;2024-02-14T01:32:33;2.88;;;2.10;;
21472;SDS011;10898;48.072;11.682;2024-02-14T01:34:35;2.83;;;2.40;;
21472;SDS011;10898;48.072;11.682;2024-02-14T01:36:37;3.67;;;2.72;;
21472;SDS011;10898;48.072;11.682;2024-02-14T01:40:44;3.38;;;2.10;;
21472;SDS011;10898;48.072;11.682;2024-02-14T01:42:47;3.85;;;2.17;;
21472;SDS011;10898;48.072;11.682;2024-02-14T01:44:49;3.03;;;2.05;;
21472;SDS011;10898;48.072;11.682;2024-02-14T01:46:52;1.92;;;1.73;;
21472;SDS011;10898;48.072;11.682;2024-02-14T01:48:54;1.98;;;1.80;;
21472;SDS011;10898;48.072;11.682;2024-02-14T01:50:57;4.78;;;2.22;;
21472;SDS011;10898;48.072;11.682;2024-02-14T01:53:00;2.17;;;1.98;;
21472;SDS011;10898;48.072;11.682;2024-02-14T01:55:03;2.30;;;2.10;;
21472;SDS011;10898;48.072;11.682;2024-02-14T01:57:06;2.45;;;1.80;;
21472;SDS011;10898;48.072;11.682;2024-02-14T01:59:12;2.17;;;2.03;;
21472;SDS011;10898;48.072;11.682;2024-02-14T02:01:17;2.40;;;1.77;;
21472;SDS011;10898;48.072;11.682;2024-02-14T02:03:19;2.88;;;2.05;;
21472;SDS011;10898;48.072;11.682;2024-02-14T02:05:22;2.28;;;1.90;;
21472;SDS011;10898;48.072;11.682;2024-02-14T02:07:23;3.00;;;1.60;;
21472;SDS011;10898;48.072;11.682;2024-02-14T02:11:28;1.77;;;1.65;;
21472;SDS011;10898;48.072;11.682;2024-02-14T02:13:30;1.60;;;1.50;;
21472;SDS011;10898;48.072;11.682;2024-02-14T02:15:32;1.98;;;1.88;;
21472;SDS011;10898;48.072;11.682;2024-02-14T02:17:33;2.00;;;1.90;;
21472;SDS011;10898;48.072;11.682;2024-02-14T02:19:35;1.70;;;1.60;;
21472;SDS011;10898;48.072;11.682;2024-02-14T02:21:38;1.83;;;1.73;;
21472;SDS011;10898;48.072;11.682;2024-02-14T02:23:39;1.75;;;1.63;;
21472;SDS011;10898;48.072;11.682;2024-02-14T02:25:46;1.27;;;1.23;;
21472;SDS011;10898;48.072;11.682;2024-02-14T02:27:48;1.80;;;1.70;;
21472;SDS011;10898;48.072;11.682;2024-02-14T02:29:50;1.50;;;1.50;;
21472;SDS011;10898;48.072;11.682;2024-02-14T02:31:52;1.42;;;1.33;;
21472;SDS011;10898;48.072;11.682;2024-02-14T02:33:54;1.27;;;1.20;;
21472;SDS011;10898;48.072;11.682;2024-02-14T02:35:56;1.45;;;1.30;;
21472;SDS011;10898;48.072;11.682;2024-02-14T02:37:59;1.30;;;1.30;;
21472;SDS011;10898;48.072;11.682;2024-02-14T02:40:01;1.70;;;1.60;;
21472;SDS011;10898;48.072;11.682;2024-02-14T02:42:03;1.33;;;1.33;;
21472;SDS011;10898;48.072;11.682;2024-02-14T02:44:05;1.75;;;1.65;;
21472;SDS011;10898;48.072;11.682;2024-02-14T02:46:11;2.90;;;1.30;;
21472;SDS011;10898;48.072;11.682;2024-02-14T02:48:13;1.65;;;1.55;;
21472;SDS011;10898;48.072;11.682;2024-02-14T02:50:15;1.40;;;1.40;;
21472;SDS011;10898;48.072;11.682;2024-02-14T02:52:16;1.15;;;1.15;;
21472;SDS011;10898;48.072;11.682;2024-02-14T02:54:18;1.70;;;1.60;;
21472;SDS011;10898;48.072;11.682;2024-02-14T02:56:20;1.53;;;1.43;;
21472;SDS011;10898;48.072;11.682;2024-02-14T02:58:23;1.50;;;1.40;;
21472;SDS011;10898;48.072;11.682;2024-02-14T03:00:25;2.20;;;1.20;;
21472;SDS011;10898;48.072;11.682;2024-02-14T03:02:28;1.42;;;1.33;;
21472;SDS011;10898;48.072;11.682;2024-02-14T03:04:29;1.40;;;1.30;;
21472;SDS011;10898;48.072;11.682;2024-02-14T03:06:52;1.92;;;1.45;;
21472;SDS011;10898;48.072;11.682;2024-02-14T03:08:54;1.40;;;1.30;;
21472;SDS011;10898;48.072;11.682;2024-02-14T03:11:01;1.50;;;1.40;;
21472;SDS011;10898;48.072;11.682;2024-02-14T03:13:07;1.58;;;1.50;;
21472;SDS011;10898;48.072;11.682;2024-02-14T03:15:13;1.20;;;1.10;;
21472;SDS011;10898;48.072;11.682;2024-02-14T03:17:15;1.30;;;1.30;;
21472;SDS011;10898;48.072;11.682;2024-02-14T03:19:16;1.40;;;1.40;;
21472;SDS011;10898;48.072;11.682;2024-02-14T03:21:18;1.50;;;1.40;;
21472;SDS011;10898;48.072;11.682;2024-02-14T03:23:20;1.48;;;1.38;;
21472;SDS011;10898;48.072;11.682;2024-02-14T03:25:23;1.33;;;1.27;;
21472;SDS011;10898;48.072;11.682;2024-02-14T03:27:25;1.20;;;1.20;;
21472;SDS011;10898;48.072;11.682;2024-02-14T03:29:28;1.27;;;1.27;;
21472;SDS011;10898;48.072;11.682;2024-02-14T03:31:29;1.25;;;1.20;;
21472;SDS011;10898;48.072;11.682;2024-02-14T03:33:32;1.63;;;1.52;;
21472;SDS011;10898;48.072;11.682;2024-02-14T03:35:34;1.10;;;1.10;;
21472;SDS011;10898;48.072;11.682;2024-02-14T03:37:36;2.90;;;1.30;;
21472;SDS011;10898;48.072;11.682;2024-02-14T03:39:40;1.38;;;1.25;;
21472;SDS011;10898;48.072;11.682;2024-02-14T03:41:42;1.60;;;1.50;;
21472;SDS011;10898;48.072;11.682;2024-02-14T03:43:44;1.35;;;1.27;;
21472;SDS011;10898;48.072;11.682;2024-02-14T03:45:45;1.37;;;1.37;;
21472;SDS011;10898;48.072;11.682;2024-02-14T03:47:47;1.50;;;1.40;;
21472;SDS011;10898;48.072;11.682;2024-02-14T03:49:49;1.33;;;1.33;;
21472;SDS011;10898;48.072;11.682;2024-02-14T03:51:52;1.10;;;1.10;;
21472;SDS011;10898;48.072;11.682;2024-02-14T03:53:56;1.55;;;1.45;;
21472;SDS011;10898;48.072;11.682;2024-02-14T03:55:57;1.50;;;1.45;;
21472;SDS011;10898;48.072;11.682;2024-02-14T03:57:59;1.48;;;1.38;;
21472;SDS011;10898;48.072;11.682;2024-02-14T04:00:01;1.80;;;1.43;;
21472;SDS011;10898;48.072;11.682;2024-02-14T04:02:04;1.65;;;1.55;;
21472;SDS011;10898;48.072;11.682;2024-02-14T04:04:11;1.42;;;1.33;;
21472;SDS011;10898;48.072;11.682;2024-02-14T04:06:13;1.40;;;1.30;;
21472;SDS011;10898;48.072;11.682;2024-02-14T04:08:15;1.30;;;1.30;;
21472;SDS011;10898;48.072;11.682;2024-02-14T04:10:17;1.55;;;1.45;;
21472;SDS011;10898;48.072;11.682;2024-02-14T04:12:19;1.20;;;1.20;;
21472;SDS011;10898;48.072;11.682;2024-02-14T04:14:20;1.48;;;1.30;;
21472;SDS011;10898;48.072;11.682;2024-02-14T04:16:22;1.58;;;1.48;;
21472;SDS011;10898;48.072;11.682;2024-02-14T04:18:24;1.27;;;1.27;;
21472;SDS011;10898;48.072;11.682;2024-02-14T04:20:26;1.67;;;1.58;;
21472;SDS011;10898;48.072;11.682;2024-02-14T04:22:28;1.65;;;1.55;;
21472;SDS011;10898;48.072;11.682;2024-02-14T04:24:30;1.63;;;1.52;;
21472;SDS011;10898;48.072;11.682;2024-02-14T04:26:35;1.70;;;1.60;;
21472;SDS011;10898;48.072;11.682;2024-02-14T04:28:38;1.45;;;1.38;;
21472;SDS011;10898;48.072;11.682;2024-02-14T04:30:41;1.30;;;1.30;;
21472;SDS011;10898;48.072;11.682;2024-02-14T04:34:46;1.30;;;1.30;;
21472;SDS011;10898;48.072;11.682;2024-02-14T04:36:48;1.60;;;1.50;;
21472;SDS011;10898;48.072;11.682;2024-02-14T04:38:50;1.20;;;1.20;;
21472;SDS011;10898;48.072;11.682;2024-02-14T04:40:53;1.67;;;1.58;;
21472;SDS011;10898;48.072;11.682;2024-02-14T04:42:55;1.40;;;1.30;;
21472;SDS011;10898;48.072;11.682;2024-02-14T04:44:57;1.52;;;1.42;;
21472;SDS011;10898;48.072;11.682;2024-02-14T04:46:59;1.70;;;1.60;;
21472;SDS011;10898;48.072;11.682;2024-02-14T04:49:01;1.52;;;1.42;;
21472;SDS011;10898;48.072;11.682;2024-02-14T04:51:06;1.33;;;1.23;;
21472;SDS011;10898;48.072;11.682;2024-02-14T04:53:08;1.48;;;1.48;;
21472;SDS011;10898;48.072;11.682;2024-02-14T04:55:10;1.50;;;1.40;;
21472;SDS011;10898;48.072;11.682;2024-02-14T04:57:12;1.33;;;1.33;;
21472;SDS011;10898;48.072;11.682;2024-02-14T04:59:14;1.70;;;1.60;;
21472;SDS011;10898;48.072;11.682;2024-02-14T05:01:16;1.55;;;1.55;;
21472;SDS011;10898;48.072;11.682;2024-02-14T05:03:19;1.60;;;1.50;;
21472;SDS011;10898;48.072;11.682;2024-02-14T05:05:21;1.70;;;1.60;;
21472;SDS011;10898;48.072;11.682;2024-02-14T05:07:23;1.50;;;1.50;;
21472;SDS011;10898;48.072;11.682;2024-02-14T05:09:25;1.90;;;1.80;;
21472;SDS011;10898;48.072;11.682;2024-02-14T05:11:26;1.77;;;1.67;;
21472;SDS011;10898;48.072;11.682;2024-02-14T05:13:29;1.52;;;1.42;;
21472;SDS011;10898;48.072;11.682;2024-02-14T05:15:31;1.50;;;1.40;;
21472;SDS011;10898;48.072;11.682;2024-02-14T05:17:33;1.65;;;1.55;;
21472;SDS011;10898;48.072;11.682;2024-02-14T05:19:36;2.58;;;1.45;;
21472;SDS011;10898;48.072;11.682;2024-02-14T05:21:38;1.58;;;1.48;;
21472;SDS011;10898;48.072;11.682;2024-02-14T05:23:40;1.73;;;1.63;;
21472;SDS011;10898;48.072;11.682;2024-02-14T05:25:44;1.73;;;1.63;;
21472;SDS011;10898;48.072;11.682;2024-02-14T05:27:46;1.70;;;1.60;;
21472;SDS011;10898;48.072;11.682;2024-02-14T05:29:48;1.58;;;1.48;;
21472;SDS011;10898;48.072;11.682;2024-02-14T05:31:50;1.42;;;1.35;;
21472;SDS011;10898;48.072;11.682;2024-02-14T05:33:56;2.97;;;1.58;;
21472;SDS011;10898;48.072;11.682;2024-02-14T05:35:58;1.98;;;1.88;;
21472;SDS011;10898;48.072;11.682;2024-02-14T05:38:00;1.42;;;1.33;;
21472;SDS011;10898;48.072;11.682;2024-02-14T05:40:02;1.58;;;1.50;;
21472;SDS011;10898;48.072;11.682;2024-02-14T05:42:07;1.77;;;1.67;;
21472;SDS011;10898;48.072;11.682;2024-02-14T05:44:09;1.65;;;1.55;;
21472;SDS011;10898;48.072;11.682;2024-02-14T05:46:11;1.73;;;1.63;;
21472;SDS011;10898;48.072;11.682;2024-02-14T05:48:13;1.53;;;1.43;;
21472;SDS011;10898;48.072;11.682;2024-02-14T05:50:16;1.70;;;1.60;;
21472;SDS011;10898;48.072;11.682;2024-02-14T05:52:17;1.70;;;1.60;;
21472;SDS011;10898;48.072;11.682;2024-02-14T05:54:19;1.58;;;1.48;;
21472;SDS011;10898;48.072;11.682;2024-02-14T05:56:21;2.22;;;2.03;;
21472;SDS011;10898;48.072;11.682;2024-02-14T05:58:23;2.23;;;1.93;;
21472;SDS011;10898;48.072;11.682;2024-02-14T06:00:29;1.73;;;1.63;;
21472;SDS011;10898;48.072;11.682;2024-02-14T06:02:31;1.33;;;1.33;;
21472;SDS011;10898;48.072;11.682;2024-02-14T06:04:33;2.53;;;2.33;;
21472;SDS011;10898;48.072;11.682;2024-02-14T06:06:35;2.53;;;2.33;;
21472;SDS011;10898;48.072;11.682;2024-02-14T06:08:37;3.25;;;2.95;;
21472;SDS011;10898;48.072;11.682;2024-02-14T06:10:39;4.75;;;2.78;;
21472;SDS011;10898;48.072;11.682;2024-02-14T06:12:41;3.00;;;2.65;;
21472;SDS011;10898;48.072;11.682;2024-02-14T06:14:47;4.13;;;2.95;;
21472;SDS011;10898;48.072;11.682;2024-02-14T06:16:50;2.70;;;2.40;;
21472;SDS011;10898;48.072;11.682;2024-02-14T06:18:52;5.13;;;3.10;;
21472;SDS011;10898;48.072;11.682;2024-02-14T06:20:55;3.85;;;2.95;;
21472;SDS011;10898;48.072;11.682;2024-02-14T06:22:56;5.32;;;3.45;;
21472;SDS011;10898;48.072;11.682;2024-02-14T06:25:06;4.65;;;2.72;;
21472;SDS011;10898;48.072;11.682;2024-02-14T06:27:10;3.75;;;2.78;;
21472;SDS011;10898;48.072;11.682;2024-02-14T06:29:14;2.83;;;2.55;;
21472;SDS011;10898;48.072;11.682;2024-02-14T06:31:16;2.83;;;2.35;;
21472;SDS011;10898;48.072;11.682;2024-02-14T06:33:18;3.20;;;2.30;;
21472;SDS011;10898;48.072;11.682;2024-02-14T06:35:20;4.25;;;2.28;;
21472;SDS011;10898;48.072;11.682;2024-02-14T06:37:22;4.38;;;2.55;;
21472;SDS011;10898;48.072;11.682;2024-02-14T06:39:24;2.38;;;1.73;;
21472;SDS011;10898;48.072;11.682;2024-02-14T06:41:26;2.67;;;2.40;;
21472;SDS011;10898;48.072;11.682;2024-02-14T06:43:28;1.83;;;1.65;;
21472;SDS011;10898;48.072;11.682;2024-02-14T06:45:30;2.22;;;2.13;;
21472;SDS011;10898;48.072;11.682;2024-02-14T06:47:32;2.03;;;1.90;;
21472;SDS011;10898;48.072;11.682;2024-02-14T06:49:34;3.65;;;2.38;;
21472;SDS011;10898;48.072;11.682;2024-02-14T06:51:35;2.67;;;2.45;;
21472;SDS011;10898;48.072;11.682;2024-02-14T06:53:37;3.05;;;2.40;;
21472;SDS011;10898;48.072;11.682;2024-02-14T06:55:39;3.13;;;2.10;;
21472;SDS011;10898;48.072;11.682;2024-02-14T06:57:41;2.05;;;1.75;;
21472;SDS011;10898;48.072;11.682;2024-02-14T06:59:43;3.47;;;2.37;;
21472;SDS011;10898;48.072;11.682;2024-02-14T07:01:45;1.90;;;1.80;;
21472;SDS011;10898;48.072;11.682;2024-02-14T07:03:47;2.15;;;1.95;;
21472;SDS011;10898;48.072;11.682;2024-02-14T07:05:49;2.33;;;1.98;;
21472;SDS011;10898;48.072;11.682;2024-02-14T07:07:53;2.22;;;1.85;;
21472;SDS011;10898;48.072;11.682;2024-02-14T07:09:55;2.22;;;1.70;;
21472;SDS011;10898;48.072;11.682;2024-02-14T07:11:57;1.70;;;1.60;;
21472;SDS011;10898;48.072;11.682;2024-02-14T07:13:59;1.75;;;1.65;;
21472;SDS011;10898;48.072;11.682;2024-02-14T07:16:01;2.83;;;1.90;;
21472;SDS011;10898;48.072;11.682;2024-02-14T07:18:03;1.60;;;1.55;;
21472;SDS011;10898;48.072;11.682;2024-02-14T07:20:05;2.83;;;1.90;;
21472;SDS011;10898;48.072;11.682;2024-02-14T07:22:10;1.63;;;1.52;;
21472;SDS011;10898;48.072;11.682;2024-02-14T07:24:12;1.70;;;1.60;;
21472;SDS011;10898;48.072;11.682;2024-02-14T07:26:13;2.13;;;1.90;;
21472;SDS011;10898;48.072;11.682;2024-02-14T07:28:15;1.73;;;1.63;;
21472;SDS011;10898;48.072;11.682;2024-02-14T07:30:18;2.00;;;1.88;;
21472;SDS011;10898;48.072;11.682;2024-02-14T07:32:20;2.75;;;2.20;;
21472;SDS011;10898;48.072;11.682;2024-02-14T07:34:23;3.17;;;2.15;;
21472;SDS011;10898;48.072;11.682;2024-02-14T07:36:25;2.60;;;2.25;;
21472;SDS011;10898;48.072;11.682;2024-02-14T07:38:27;1.90;;;1.67;;
21472;SDS011;10898;48.072;11.682;2024-02-14T07:40:28;2.20;;;2.10;;
21472;SDS011;10898;48.072;11.682;2024-02-14T07:42:32;4.03;;;2.03;;
21472;SDS011;10898;48.072;11.682;2024-02-14T07:44:34;1.50;;;1.40;;
21472;SDS011;10898;48.072;11.682;2024-02-14T07:46:35;1.42;;;1.30;;
21472;SDS011;10898;48.072;11.682;2024-02-14T07:48:37;1.60;;;1.50;;
21472;SDS011;10898;48.072;11.682;2024-02-14T07:50:39;1.80;;;1.70;;
21472;SDS011;10898;48.072;11.682;2024-02-14T07:52:42;1.73;;;1.60;;
21472;SDS011;10898;48.072;11.682;2024-02-14T07:54:45;1.67;;;1.58;;
21472;SDS011;10898;48.072;11.682;2024-02-14T07:56:46;2.78;;;1.80;;
21472;SDS011;10898;48.072;11.682;2024-02-14T07:58:48;1.98;;;1.70;;
21472;SDS011;10898;48.072;11.682;2024-02-14T08:02:52;1.55;;;1.45;;
21472;SDS011;10898;48.072;11.682;2024-02-14T08:04:54;2.53;;;1.58;;
21472;SDS011;10898;48.072;11.682;2024-02-14T08:06:56;1.58;;;1.48;;
21472;SDS011;10898;48.072;11.682;2024-02-14T08:08:58;2.00;;;1.90;;
21472;SDS011;10898;48.072;11.682;2024-02-14T08:11:03;2.42;;;2.08;;
21472;SDS011;10898;48.072;11.682;2024-02-14T08:13:05;1.48;;;1.38;;
21472;SDS011;10898;48.072;11.682;2024-02-14T08:15:07;1.67;;;1.40;;
21472;SDS011;10898;48.072;11.682;2024-02-14T08:17:10;2.50;;;1.42;;
21472;SDS011;10898;48.072;11.682;2024-02-14T08:19:11;1.70;;;1.60;;
21472;SDS011;10898;48.072;11.682;2024-02-14T08:21:13;1.92;;;1.73;;
21472;SDS011;10898;48.072;11.682;2024-02-14T08:23:15;2.08;;;1.88;;
21472;SDS011;10898;48.072;11.682;2024-02-14T08:25:18;2.75;;;1.48;;
21472;SDS011;10898;48.072;11.682;2024-02-14T08:27:20;1.80;;;1.70;;
21472;SDS011;10898;48.072;11.682;2024-02-14T08:29:21;1.40;;;1.30;;
21472;SDS011;10898;48.072;11.682;2024-02-14T08:31:24;1.98;;;1.40;;
21472;SDS011;10898;48.072;11.682;2024-02-14T08:33:25;2.10;;;1.50;;
21472;SDS011;10898;48.072;11.682;2024-02-14T08:35:27;1.52;;;1.42;;
21472;SDS011;10898;48.072;11.682;2024-02-14T08:37:29;1.50;;;1.40;;
21472;SDS011;10898;48.072;11.682;2024-02-14T08:39:31;1.83;;;1.33;;
21472;SDS011;10898;48.072;11.682;2024-02-14T08:41:33;1.53;;;1.43;;
21472;SDS011;10898;48.072;11.682;2024-02-14T08:43:35;1.55;;;1.45;;
21472;SDS011;10898;48.072;11.682;2024-02-14T08:45:37;1.90;;;1.50;;
21472;SDS011;10898;48.072;11.682;2024-02-14T08:49:44;1.48;;;1.38;;
21472;SDS011;10898;48.072;11.682;2024-02-14T08:51:46;1.63;;;1.53;;
21472;SDS011;10898;48.072;11.682;2024-02-14T08:53:49;1.70;;;1.60;;
21472;SDS011;10898;48.072;11.682;2024-02-14T08:55:58;2.20;;;1.60;;
21472;SDS011;10898;48.072;11.682;2024-02-14T08:58:00;1.73;;;1.40;;
21472;SDS011;10898;48.072;11.682;2024-02-14T09:00:02;1.33;;;1.23;;
21472;SDS011;10898;48.072;11.682;2024-02-14T09:02:05;1.52;;;1.10;;
21472;SDS011;10898;48.072;11.682;2024-02-14T09:04:07;2.10;;;1.47;;
21472;SDS011;10898;48.072;11.682;2024-02-14T09:06:09;1.48;;;1.38;;
21472;SDS011;10898;48.072;11.682;2024-02-14T09:08:11;2.07;;;1.30;;
21472;SDS011;10898;48.072;11.682;2024-02-14T09:10:13;1.77;;;1.63;;
21472;SDS011;10898;48.072;11.682;2024-02-14T09:12:16;2.40;;;1.60;;
21472;SDS011;10898;48.072;11.682;2024-02-14T09:14:17;1.83;;;1.70;;
21472;SDS011;10898;48.072;11.682;2024-02-14T09:16:19;1.70;;;1.60;;
21472;SDS011;10898;48.072;11.682;2024-02-14T09:18:23;2.08;;;1.88;;
21472;SDS011;10898;48.072;11.682;2024-02-14T09:20:26;1.70;;;1.45;;
21472;SDS011;10898;48.072;11.682;2024-02-14T09:22:28;4.22;;;1.70;;
21472;SDS011;10898;48.072;11.682;2024-02-14T09:24:30;1.38;;;1.27;;
21472;SDS011;10898;48.072;11.682;2024-02-14T09:26:32;2.17;;;1.97;;
21472;SDS011;10898;48.072;11.682;2024-02-14T09:28:34;1.50;;;1.40;;
21472;SDS011;10898;48.072;11.682;2024-02-14T09:30:37;1.70;;;1.58;;
21472;SDS011;10898;48.072;11.682;2024-02-14T09:32:39;1.50;;;1.40;;
21472;SDS011;10898;48.072;11.682;2024-02-14T09:34:41;1.40;;;1.30;;
21472;SDS011;10898;48.072;11.682;2024-02-14T09:36:43;1.98;;;1.83;;
21472;SDS011;10898;48.072;11.682;2024-02-14T09:38:46;1.80;;;1.60;;
21472;SDS011;10898;48.072;11.682;2024-02-14T09:42:54;1.38;;;1.27;;
21472;SDS011;10898;48.072;11.682;2024-02-14T09:44:59;1.38;;;1.27;;
21472;SDS011;10898;48.072;11.682;2024-02-14T09:47:01;1.75;;;1.65;;
21472;SDS011;10898;48.072;11.682;2024-02-14T09:49:05;1.58;;;1.38;;
21472;SDS011;10898;48.072;11.682;2024-02-14T09:53:10;1.20;;;1.10;;
21472;SDS011;10898;48.072;11.682;2024-02-14T09:55:13;1.77;;;1.67;;
21472;SDS011;10898;48.072;11.682;2024-02-14T09:57:16;1.88;;;1.50;;
21472;SDS011;10898;48.072;11.682;2024-02-14T09:59:21;1.48;;;1.27;;
21472;SDS011;10898;48.072;11.682;2024-02-14T10:01:24;1.63;;;1.52;;
21472;SDS011;10898;48.072;11.682;2024-02-14T10:03:27;1.63;;;1.20;;
21472;SDS011;10898;48.072;11.682;2024-02-14T10:05:29;2.38;;;1.17;;
21472;SDS011;10898;48.072;11.682;2024-02-14T10:07:39;1.53;;;1.43;;
21472;SDS011;10898;48.072;11.682;2024-02-14T10:09:42;1.33;;;1.23;;
21472;SDS011;10898;48.072;11.682;2024-02-14T10:15:51;1.63;;;1.40;;
21472;SDS011;10898;48.072;11.682;2024-02-14T10:17:53;2.60;;;1.33;;
21472;SDS011;10898;48.072;11.682;2024-02-14T10:19:58;3.25;;;1.73;;
21472;SDS011;10898;48.072;11.682;2024-02-14T10:22:01;1.80;;;1.48;;
21472;SDS011;10898;48.072;11.682;2024-02-14T10:24:06;1.27;;;1.17;;
21472;SDS011;10898;48.072;11.682;2024-02-14T10:26:08;2.17;;;1.15;;
21472;SDS011;10898;48.072;11.682;2024-02-14T10:28:11;1.23;;;1.13;;
21472;SDS011;10898;48.072;11.682;2024-02-14T10:30:13;1.33;;;1.23;;
21472;SDS011;10898;48.072;11.682;2024-02-14T10:32:16;1.50;;;1.40;;
21472;SDS011;10898;48.072;11.682;2024-02-14T10:34:24;1.40;;;1.30;;
21472;SDS011;10898;48.072;11.682;2024-02-14T10:36:28;1.85;;;1.10;;
21472;SDS011;10898;48.072;11.682;2024-02-14T10:38:32;1.20;;;1.10;;
21472;SDS011;10898;48.072;11.682;2024-02-14T10:40:35;2.03;;;1.15;;
21472;SDS011;10898;48.072;11.682;2024-02-14T10:42:39;1.35;;;1.25;;
21472;SDS011;10898;48.072;11.682;2024-02-14T10:44:41;1.30;;;1.20;;
21472;SDS011;10898;48.072;11.682;2024-02-14T10:46:43;1.90;;;1.20;;
21472;SDS011;10898;48.072;11.682;2024-02-14T10:48:47;1.85;;;1.30;;
21472;SDS011;10898;48.072;11.682;2024-02-14T10:50:54;1.27;;;1.05;;
21472;SDS011;10898;48.072;11.682;2024-02-14T10:53:03;2.70;;;0.95;;
21472;SDS011;10898;48.072;11.682;2024-02-14T10:55:09;1.25;;;1.15;;
21472;SDS011;10898;48.072;11.682;2024-02-14T10:57:13;1.85;;;1.10;;
21472;SDS011;10898;48.072;11.682;2024-02-14T10:59:18;1.58;;;1.20;;
21472;SDS011;10898;48.072;11.682;2024-02-14T11:01:22;1.35;;;1.25;;
21472;SDS011;10898;48.072;11.682;2024-02-14T11:03:26;1.25;;;1.15;;
21472;SDS011;10898;48.072;11.682;2024-02-14T11:05:30;2.28;;;1.10;;
21472;SDS011;10898;48.072;11.682;2024-02-14T11:07:32;2.38;;;1.40;;
21472;SDS011;10898;48.072;11.682;2024-02-14T11:09:37;1.30;;;1.17;;
21472;SDS011;10898;48.072;11.682;2024-02-14T11:11:42;1.25;;;1.15;;
21472;SDS011;10898;48.072;11.682;2024-02-14T11:13:51;1.27;;;1.13;;
21472;SDS011;10898;48.072;11.682;2024-02-14T11:15:54;1.10;;;0.90;;
21472;SDS011;10898;48.072;11.682;2024-02-14T11:18:04;1.88;;;1.00;;
21472;SDS011;10898;48.072;11.682;2024-02-14T11:20:52;1.95;;;1.35;;
21472;SDS011;10898;48.072;11.682;2024-02-14T11:22:35;1.20;;;1.10;;
21472;SDS011;10898;48.072;11.682;2024-02-14T11:24:37;1.97;;;1.13;;
21472;SDS011;10898;48.072;11.682;2024-02-14T11:26:40;2.60;;;1.20;;
21472;SDS011;10898;48.072;11.682;2024-02-14T11:29:01;1.33;;;0.98;;
21472;SDS011;10898;48.072;11.682;2024-02-14T11:31:07;1.67;;;1.17;;
21472;SDS011;10898;48.072;11.682;2024-02-14T11:33:23;3.38;;;1.10;;
21472;SDS011;10898;48.072;11.682;2024-02-14T11:35:25;1.17;;;1.08;;
21472;SDS011;10898;48.072;11.682;2024-02-14T11:37:27;1.30;;;1.20;;
21472;SDS011;10898;48.072;11.682;2024-02-14T11:39:32;2.05;;;1.08;;
21472;SDS011;10898;48.072;11.682;2024-02-14T11:41:34;1.00;;;1.00;;
21472;SDS011;10898;48.072;11.682;2024-02-14T11:43:36;1.35;;;1.25;;
21472;SDS011;10898;48.072;11.682;2024-02-14T11:45:41;0.95;;;0.95;;
21472;SDS011;10898;48.072;11.682;2024-02-14T11:49:45;2.28;;;1.08;;
21472;SDS011;10898;48.072;11.682;2024-02-14T11:51:47;0.93;;;0.93;;
21472;SDS011;10898;48.072;11.682;2024-02-14T11:53:50;0.90;;;0.90;;
21472;SDS011;10898;48.072;11.682;2024-02-14T11:55:52;1.20;;;1.10;;
21472;SDS011;10898;48.072;11.682;2024-02-14T11:57:54;0.80;;;0.80;;
21472;SDS011;10898;48.072;11.682;2024-02-14T11:59:57;1.10;;;1.00;;
21472;SDS011;10898;48.072;11.682;2024-02-14T12:01:59;1.10;;;1.00;;
21472;SDS011;10898;48.072;11.682;2024-02-14T12:04:04;1.20;;;1.10;;
21472;SDS011;10898;48.072;11.682;2024-02-14T12:06:10;1.00;;;0.90;;
21472;SDS011;10898;48.072;11.682;2024-02-14T12:08:12;1.10;;;1.10;;
21472;SDS011;10898;48.072;11.682;2024-02-14T12:10:15;0.95;;;0.93;;
21472;SDS011;10898;48.072;11.682;2024-02-14T12:12:18;0.82;;;0.82;;
21472;SDS011;10898;48.072;11.682;2024-02-14T12:14:24;1.00;;;0.90;;
21472;SDS011;10898;48.072;11.682;2024-02-14T12:16:31;1.85;;;0.90;;
21472;SDS011;10898;48.072;11.682;2024-02-14T12:18:38;3.28;;;1.30;;
21472;SDS011;10898;48.072;11.682;2024-02-14T12:22:44;0.95;;;0.90;;
21472;SDS011;10898;48.072;11.682;2024-02-14T12:24:55;1.27;;;1.02;;
21472;SDS011;10898;48.072;11.682;2024-02-14T12:26:59;1.08;;;0.98;;
21472;SDS011;10898;48.072;11.682;2024-02-14T12:29:01;1.30;;;1.20;;
21472;SDS011;10898;48.072;11.682;2024-02-14T12:31:05;1.02;;;0.90;;
21472;SDS011;10898;48.072;11.682;2024-02-14T12:33:06;0.70;;;0.70;;